createdAt,value
2017-11-06T00:00:04.060Z,47.07
2017-11-06T00:02:30.731Z,42.50
2017-11-06T00:04:57.346Z,48.30
2017-11-06T00:07:23.958Z,52.60
2017-11-06T00:09:50.588Z,47.30
2017-11-06T00:12:17.223Z,50.73
2017-11-06T00:14:43.877Z,58.67
2017-11-06T00:17:10.542Z,47.30
2017-11-06T00:19:37.165Z,65.57
2017-11-06T00:22:03.780Z,65.70
2017-11-06T00:24:30.437Z,55.90
2017-11-06T00:26:57.069Z,51.80
2017-11-06T00:29:23.708Z,53.00
2017-11-06T00:31:50.325Z,51.87
2017-11-06T00:34:16.962Z,59.47
2017-11-06T00:36:43.601Z,58.63
2017-11-06T00:39:10.241Z,57.00
2017-11-06T00:41:36.870Z,63.00
2017-11-06T00:44:03.544Z,61.63
2017-11-06T00:46:30.350Z,55.67
2017-11-06T00:48:57.165Z,74.77
2017-11-06T00:51:23.781Z,59.67
2017-11-06T00:53:50.412Z,59.80
2017-11-06T00:56:17.066Z,68.57
2017-11-06T00:58:43.679Z,76.50
2017-11-06T01:01:10.328Z,65.10
2017-11-06T01:03:36.971Z,48.47
2017-11-06T01:06:03.586Z,64.37
2017-11-06T01:08:30.197Z,66.10
2017-11-06T01:10:56.825Z,66.90
2017-11-06T01:13:23.471Z,50.30
2017-11-06T01:15:50.136Z,49.93
2017-11-06T01:18:16.748Z,62.03
2017-11-06T01:20:43.372Z,69.90
2017-11-06T01:23:10.028Z,54.60
2017-11-06T01:25:36.722Z,64.20
2017-11-06T01:28:03.332Z,58.83
2017-11-06T01:30:29.957Z,68.80
2017-11-06T01:32:56.581Z,67.07
2017-11-06T01:35:23.185Z,53.90
2017-11-06T01:37:49.793Z,70.40
2017-11-06T01:40:16.408Z,60.57
2017-11-06T01:42:43.022Z,79.53
2017-11-06T01:45:09.645Z,81.33
2017-11-06T01:47:36.290Z,71.73
2017-11-06T01:50:02.893Z,73.80
2017-11-06T01:52:29.545Z,69.93
2017-11-06T01:54:56.224Z,74.33
2017-11-06T01:57:22.857Z,70.33
2017-11-06T01:59:49.471Z,76.93
2017-11-06T02:02:16.104Z,73.17
2017-11-06T02:04:42.752Z,67.50
2017-11-06T02:07:09.376Z,77.83
2017-11-06T02:09:36.020Z,59.20
2017-11-06T02:12:02.654Z,82.47
2017-11-06T02:14:29.293Z,83.13
2017-11-06T02:16:55.957Z,79.10
2017-11-06T02:19:22.597Z,77.47
2017-11-06T02:21:49.212Z,75.20
2017-11-06T02:24:15.836Z,87.43
2017-11-06T02:26:42.437Z,91.37
2017-11-06T02:29:09.061Z,74.20
2017-11-06T02:31:35.691Z,83.97
2017-11-06T02:34:02.350Z,95.53
2017-11-06T02:36:29.020Z,90.07
2017-11-06T02:38:55.677Z,74.37
2017-11-06T02:41:22.300Z,70.07
2017-11-06T02:43:48.959Z,98.47
2017-11-06T02:46:15.609Z,90.53
2017-11-06T02:48:42.263Z,101.80
2017-11-06T02:51:08.873Z,81.67
2017-11-06T02:53:35.526Z,70.03
2017-11-06T02:56:02.168Z,103.13
2017-11-06T02:58:28.786Z,78.00
2017-11-06T03:00:55.426Z,102.93
2017-11-06T03:03:22.037Z,110.73
2017-11-06T03:05:48.656Z,102.27
2017-11-06T03:08:15.272Z,102.47
2017-11-06T03:10:41.894Z,86.73
2017-11-06T03:13:08.503Z,95.20
2017-11-06T03:15:35.121Z,93.57
2017-11-06T03:18:01.742Z,94.17
2017-11-06T03:20:28.840Z,82.73
2017-11-06T03:22:55.468Z,95.37
2017-11-06T03:25:22.103Z,98.80
2017-11-06T03:27:48.782Z,106.63
2017-11-06T03:30:15.405Z,83.73
2017-11-06T03:32:42.037Z,103.13
2017-11-06T03:35:08.644Z,86.73
2017-11-06T03:37:35.279Z,98.77
2017-11-06T03:40:01.913Z,138.93
2017-11-06T03:42:28.550Z,105.30
2017-11-06T03:44:55.250Z,99.37
2017-11-06T03:47:21.881Z,117.90
2017-11-06T03:49:48.500Z,96.37
2017-11-06T03:52:15.127Z,88.57
2017-11-06T03:54:41.764Z,105.27
2017-11-06T03:57:08.791Z,117.93
2017-11-06T03:59:35.417Z,92.53
2017-11-06T04:02:02.035Z,98.47
2017-11-06T04:04:28.641Z,68.33
2017-11-06T04:06:55.264Z,90.43
2017-11-06T04:09:21.885Z,93.07
2017-11-06T04:11:48.498Z,93.30
2017-11-06T04:14:15.136Z,85.57
2017-11-06T04:16:41.773Z,88.30
2017-11-06T04:19:08.660Z,85.03
2017-11-06T04:21:35.337Z,78.40
2017-11-06T04:24:01.961Z,88.50
2017-11-06T04:26:28.822Z,93.17
2017-11-06T04:28:55.473Z,104.33
2017-11-06T04:31:22.154Z,88.13
2017-11-06T04:33:51.396Z,89.47
2017-11-06T04:36:18.012Z,90.63
2017-11-06T04:38:44.626Z,89.07
2017-11-06T04:41:11.231Z,90.07
2017-11-06T04:43:38.221Z,85.10
2017-11-06T04:46:05.493Z,85.53
2017-11-06T04:48:32.094Z,84.60
2017-11-06T04:50:58.751Z,76.23
2017-11-06T04:53:25.361Z,88.70
2017-11-06T04:55:52.004Z,94.90
2017-11-06T04:58:18.654Z,77.27
2017-11-06T05:00:45.279Z,90.10
2017-11-06T05:03:11.885Z,77.80
2017-11-06T05:05:38.518Z,74.43
2017-11-06T05:08:05.136Z,81.00
2017-11-06T05:10:31.749Z,87.67
2017-11-06T05:12:58.392Z,73.40
2017-11-06T05:15:25.010Z,77.30
2017-11-06T05:17:51.616Z,77.87
2017-11-06T05:20:18.281Z,74.33
2017-11-06T05:22:44.906Z,90.93
2017-11-06T05:25:11.536Z,81.73
2017-11-06T05:27:38.177Z,82.80
2017-11-06T05:30:04.816Z,72.40
2017-11-06T05:32:31.449Z,81.13
2017-11-06T05:34:58.121Z,92.30
2017-11-06T05:37:24.729Z,84.83
2017-11-06T05:39:51.372Z,92.57
2017-11-06T05:42:18.011Z,101.97
2017-11-06T05:44:44.628Z,94.50
2017-11-06T05:47:11.310Z,93.10
2017-11-06T05:49:37.904Z,98.80
2017-11-06T05:52:04.595Z,95.37
2017-11-06T05:54:31.223Z,93.90
2017-11-06T05:56:57.839Z,89.50
2017-11-06T05:59:24.625Z,96.20
2017-11-06T06:01:51.252Z,101.87
2017-11-06T06:04:17.874Z,98.10
2017-11-06T06:06:44.526Z,108.70
2017-11-06T06:09:11.148Z,101.23
2017-11-06T06:11:37.766Z,100.07
2017-11-06T06:14:04.401Z,95.93
2017-11-06T06:16:31.026Z,90.57
2017-11-06T06:18:58.210Z,84.43
2017-11-06T06:21:24.825Z,83.87
2017-11-06T06:23:51.442Z,88.17
2017-11-06T06:26:18.079Z,85.63
2017-11-06T06:28:44.699Z,86.20
2017-11-06T06:31:11.323Z,88.90
2017-11-06T06:33:37.933Z,95.50
2017-11-06T06:36:04.603Z,101.63
2017-11-06T06:38:31.286Z,101.33
2017-11-06T06:40:57.971Z,101.77
2017-11-06T06:43:24.570Z,99.23
2017-11-06T06:45:51.190Z,105.57
2017-11-06T06:48:17.809Z,97.17
2017-11-06T06:50:44.493Z,91.77
2017-11-06T06:53:11.100Z,93.57
2017-11-06T06:55:37.770Z,93.80
2017-11-06T06:58:04.404Z,78.53
2017-11-06T07:00:31.012Z,81.57
2017-11-06T07:02:57.629Z,74.73
2017-11-06T07:05:24.257Z,69.57
2017-11-06T07:07:50.867Z,76.97
2017-11-06T07:10:17.494Z,89.47
2017-11-06T07:12:44.177Z,78.33
2017-11-06T07:15:10.789Z,82.33
2017-11-06T07:17:37.404Z,75.07
2017-11-06T07:20:04.067Z,83.33
2017-11-06T07:22:30.672Z,70.87
2017-11-06T07:24:57.313Z,83.53
2017-11-06T07:27:23.921Z,82.63
2017-11-06T07:29:50.558Z,70.27
2017-11-06T07:32:17.165Z,81.10
2017-11-06T07:34:43.824Z,94.67
2017-11-06T07:37:10.449Z,71.03
2017-11-06T07:39:37.084Z,65.00
2017-11-06T07:42:03.748Z,64.70
2017-11-06T07:44:30.369Z,71.63
2017-11-06T07:46:57.040Z,78.17
2017-11-06T07:49:23.679Z,74.93
2017-11-06T07:51:50.282Z,66.37
2017-11-06T07:54:16.913Z,60.17
2017-11-06T07:56:43.864Z,72.27
2017-11-06T07:59:10.532Z,62.57
2017-11-06T08:01:37.137Z,59.23
2017-11-06T08:04:04.036Z,60.73
2017-11-06T08:06:30.700Z,52.83
2017-11-06T08:08:57.355Z,48.43
2017-11-06T08:11:24.092Z,51.23
2017-11-06T08:13:50.703Z,55.33
2017-11-06T08:16:17.487Z,42.80
2017-11-06T08:18:44.114Z,47.37
2017-11-06T08:21:12.424Z,44.27
2017-11-06T08:23:39.524Z,44.57
2017-11-06T08:26:06.129Z,42.37
2017-11-06T08:28:32.764Z,47.33
2017-11-06T08:30:59.380Z,34.93
2017-11-06T08:33:26.065Z,36.20
2017-11-06T08:35:52.675Z,34.77
2017-11-06T08:38:19.321Z,35.53
2017-11-06T08:40:45.995Z,42.43
2017-11-06T08:43:12.655Z,33.90
2017-11-06T08:45:39.263Z,34.57
2017-11-06T08:48:05.900Z,31.93
2017-11-06T08:50:32.554Z,43.73
2017-11-06T08:52:59.206Z,26.07
2017-11-06T08:55:25.841Z,28.63
2017-11-06T08:57:52.466Z,21.60
2017-11-06T09:00:19.116Z,33.27
2017-11-06T09:02:45.741Z,23.37
2017-11-06T09:05:12.361Z,28.83
2017-11-06T09:07:39.009Z,19.37
2017-11-06T09:10:05.650Z,16.03
2017-11-06T09:12:32.291Z,28.33
2017-11-06T09:14:58.955Z,21.43
2017-11-06T09:17:25.605Z,16.10
2017-11-06T09:19:52.226Z,15.40
2017-11-06T09:22:18.864Z,35.70
2017-11-06T09:24:45.470Z,16.63
2017-11-06T09:27:12.096Z,21.13
2017-11-06T09:29:38.808Z,17.23
2017-11-06T09:32:05.426Z,21.10
2017-11-06T09:34:32.056Z,12.03
2017-11-06T09:36:58.672Z,21.40
2017-11-06T09:39:25.307Z,19.47
2017-11-06T09:41:51.924Z,15.83
2017-11-06T09:44:18.538Z,14.60
2017-11-06T09:46:45.154Z,19.53
2017-11-06T09:49:11.774Z,18.60
2017-11-06T09:51:38.405Z,13.97
2017-11-06T09:54:05.043Z,15.47
2017-11-06T09:56:31.653Z,25.97
2017-11-06T09:58:58.279Z,18.10
2017-11-06T10:01:24.886Z,12.30
2017-11-06T10:03:51.505Z,11.30
2017-11-06T10:06:18.123Z,10.40
2017-11-06T10:08:44.734Z,14.53
2017-11-06T10:11:11.345Z,13.97
2017-11-06T10:13:37.970Z,11.17
2017-11-06T10:16:04.573Z,16.10
2017-11-06T10:18:31.181Z,9.67
2017-11-06T10:20:57.793Z,12.00
2017-11-06T10:23:24.404Z,13.70
2017-11-06T10:25:51.037Z,9.67
2017-11-06T10:28:17.661Z,19.63
2017-11-06T10:30:44.278Z,10.50
2017-11-06T10:33:10.917Z,10.60
2017-11-06T10:35:37.510Z,7.37
2017-11-06T10:38:04.137Z,11.70
2017-11-06T10:40:30.753Z,7.10
2017-11-06T10:42:57.349Z,6.70
2017-11-06T10:45:23.995Z,7.00
2017-11-06T10:47:50.613Z,5.70
2017-11-06T10:50:17.257Z,20.00
2017-11-06T10:52:43.886Z,5.63
2017-11-06T10:55:10.525Z,10.80
2017-11-06T10:57:37.182Z,6.03
2017-11-06T11:00:03.810Z,15.47
2017-11-06T11:02:30.440Z,8.93
2017-11-06T11:04:57.089Z,13.93
2017-11-06T11:07:23.724Z,10.30
2017-11-06T11:09:50.365Z,12.33
2017-11-06T11:12:17.622Z,5.00
2017-11-06T11:14:45.238Z,13.83
2017-11-06T11:17:11.902Z,6.00
2017-11-06T11:19:38.575Z,23.40
2017-11-06T11:22:05.242Z,14.23
2017-11-06T11:24:31.891Z,11.33
2017-11-06T11:26:58.517Z,9.67
2017-11-06T11:29:25.144Z,11.60
2017-11-06T11:31:51.840Z,10.73
2017-11-06T11:34:18.502Z,5.07
2017-11-06T11:36:45.418Z,7.33
2017-11-06T11:39:12.065Z,9.53
2017-11-06T11:41:39.218Z,7.77
2017-11-06T11:44:05.845Z,6.00
2017-11-06T11:46:32.453Z,8.07
2017-11-06T11:48:59.122Z,10.73
2017-11-06T11:51:25.739Z,9.50
2017-11-06T11:53:52.401Z,8.37
2017-11-06T11:56:19.033Z,11.10
2017-11-06T11:58:45.662Z,6.80
2017-11-06T12:01:12.342Z,4.17
2017-11-06T12:03:39.615Z,6.37
2017-11-06T12:06:07.425Z,8.40
2017-11-06T12:08:34.034Z,7.10
2017-11-06T12:11:00.653Z,9.80
2017-11-06T12:13:27.410Z,12.47
2017-11-06T12:15:54.034Z,6.40
2017-11-06T12:18:20.652Z,8.60
2017-11-06T12:20:47.286Z,16.17
2017-11-06T12:23:14.013Z,8.50
2017-11-06T12:25:40.634Z,5.57
2017-11-06T12:28:07.882Z,5.73
2017-11-06T12:30:34.490Z,3.90
2017-11-06T12:33:01.121Z,14.73
2017-11-06T12:35:27.725Z,4.23
2017-11-06T12:37:54.399Z,10.33
2017-11-06T12:40:21.035Z,9.50
2017-11-06T12:42:47.648Z,5.43
2017-11-06T12:45:14.310Z,4.93
2017-11-06T12:47:40.952Z,9.00
2017-11-06T12:50:07.573Z,8.27
2017-11-06T12:52:34.223Z,15.23
2017-11-06T12:55:00.829Z,12.33
2017-11-06T12:57:28.604Z,4.80
2017-11-06T12:59:55.202Z,5.17
2017-11-06T13:02:21.812Z,10.83
2017-11-06T13:04:48.421Z,7.90
2017-11-06T13:07:15.053Z,3.20
2017-11-06T13:09:41.679Z,8.40
2017-11-06T13:12:08.288Z,9.40
2017-11-06T13:14:34.938Z,4.50
2017-11-06T13:17:01.550Z,7.03
2017-11-06T13:19:28.201Z,18.00
2017-11-06T13:21:55.570Z,14.80
2017-11-06T13:24:22.186Z,5.90
2017-11-06T13:26:48.780Z,8.90
2017-11-06T13:29:15.405Z,15.33
2017-11-06T13:31:42.765Z,6.23
2017-11-06T13:34:09.605Z,6.33
2017-11-06T13:36:36.244Z,7.77
2017-11-06T13:39:02.873Z,4.27
2017-11-06T13:41:29.489Z,9.80
2017-11-06T13:43:56.078Z,4.70
2017-11-06T13:46:22.692Z,12.73
2017-11-06T13:48:50.387Z,21.57
2017-11-06T13:51:17.924Z,10.87
2017-11-06T13:53:44.541Z,7.77
2017-11-06T13:56:11.155Z,3.80
2017-11-06T13:58:38.060Z,3.33
2017-11-06T14:01:04.944Z,3.30
2017-11-06T14:03:31.561Z,7.03
2017-11-06T14:05:58.156Z,3.50
2017-11-06T14:08:24.785Z,6.20
2017-11-06T14:10:51.424Z,3.83
2017-11-06T14:13:18.033Z,8.30
2017-11-06T14:15:44.645Z,4.70
2017-11-06T14:18:11.287Z,5.33
2017-11-06T14:20:37.869Z,4.43
2017-11-06T14:23:04.509Z,5.37
2017-11-06T14:25:31.114Z,2.17
2017-11-06T14:27:57.733Z,5.70
2017-11-06T14:30:24.335Z,9.00
2017-11-06T14:32:50.949Z,7.20
2017-11-06T14:35:19.444Z,8.17
2017-11-06T14:37:46.068Z,6.00
2017-11-06T14:40:12.684Z,5.73
2017-11-06T14:42:39.841Z,4.90
2017-11-06T14:45:06.497Z,2.30
2017-11-06T14:47:33.134Z,7.27
2017-11-06T14:49:59.853Z,5.27
2017-11-06T14:52:26.477Z,15.47
2017-11-06T14:54:53.125Z,4.50
2017-11-06T14:57:19.762Z,6.10
2017-11-06T14:59:46.410Z,12.80
2017-11-06T15:02:13.006Z,3.03
2017-11-06T15:04:40.004Z,3.90
2017-11-06T15:07:06.626Z,4.17
2017-11-06T15:09:33.247Z,4.87
2017-11-06T15:11:59.865Z,3.23
2017-11-06T15:14:26.477Z,15.33
2017-11-06T15:16:53.117Z,4.63
2017-11-06T15:19:19.749Z,9.00
2017-11-06T15:21:46.353Z,3.57
2017-11-06T15:24:12.987Z,3.90
2017-11-06T15:26:39.612Z,3.27
2017-11-06T15:29:06.214Z,4.93
2017-11-06T15:31:32.836Z,4.60
2017-11-06T15:33:59.551Z,2.87
2017-11-06T15:36:26.151Z,6.80
2017-11-06T15:38:52.811Z,11.47
2017-11-06T15:41:19.454Z,5.10
2017-11-06T15:43:46.064Z,6.40
2017-11-06T15:46:12.757Z,4.10
2017-11-06T15:48:39.432Z,8.13
2017-11-06T15:51:06.069Z,5.40
2017-11-06T15:53:32.714Z,9.47
2017-11-06T15:55:59.343Z,6.97
2017-11-06T15:58:26.099Z,12.13
2017-11-06T16:00:53.086Z,7.67
2017-11-06T16:03:19.726Z,9.00
2017-11-06T16:05:53.873Z,6.30
2017-11-06T16:08:23.429Z,15.40
2017-11-06T16:10:50.078Z,15.03
2017-11-06T16:13:16.766Z,11.63
2017-11-06T16:15:43.437Z,9.80
2017-11-06T16:18:10.049Z,7.17
2017-11-06T16:20:36.681Z,24.20
2017-11-06T16:23:03.341Z,7.23
2017-11-06T16:25:29.965Z,4.57
2017-11-06T16:27:56.595Z,6.87
2017-11-06T16:30:23.220Z,46.27
2017-11-06T16:32:49.867Z,30.63
2017-11-06T16:35:16.500Z,11.23
2017-11-06T16:37:43.118Z,15.00
2017-11-06T16:40:10.471Z,18.50
2017-11-06T16:42:37.111Z,12.87
2017-11-06T16:45:03.764Z,46.30
2017-11-06T16:47:30.470Z,71.77
2017-11-06T16:49:57.104Z,63.70
2017-11-06T16:52:23.757Z,49.10
2017-11-06T16:54:50.373Z,58.30
2017-11-06T16:57:16.999Z,25.67
2017-11-06T16:59:43.614Z,26.63
2017-11-06T17:02:10.246Z,35.33
2017-11-06T17:04:36.883Z,21.40
2017-11-06T17:07:03.495Z,72.40
2017-11-06T17:09:30.128Z,45.30
2017-11-06T17:11:56.745Z,50.27
2017-11-06T17:14:23.362Z,61.67
2017-11-06T17:16:49.984Z,27.10
2017-11-06T17:19:16.613Z,15.40
2017-11-06T17:21:43.259Z,20.87
2017-11-06T17:24:09.890Z,31.73
2017-11-06T17:26:36.542Z,33.57
2017-11-06T17:29:03.168Z,39.60
2017-11-06T17:31:29.817Z,43.93
2017-11-06T17:33:56.443Z,52.17
2017-11-06T17:36:23.104Z,43.27
2017-11-06T17:38:50.520Z,28.20
2017-11-06T17:41:17.160Z,26.70
2017-11-06T17:43:43.780Z,20.80
2017-11-06T17:46:10.404Z,18.47
2017-11-06T17:48:37.057Z,13.73
2017-11-06T17:51:03.697Z,28.10
2017-11-06T17:53:30.337Z,36.30
2017-11-06T17:55:56.975Z,65.83
2017-11-06T17:58:23.611Z,65.53
2017-11-06T18:00:50.250Z,66.67
2017-11-06T18:03:16.887Z,71.37
2017-11-06T18:05:43.505Z,84.43
2017-11-06T18:08:10.141Z,68.03
2017-11-06T18:10:36.758Z,54.30
2017-11-06T18:13:03.381Z,57.17
2017-11-06T18:15:30.013Z,51.60
2017-11-06T18:17:56.632Z,53.53
2017-11-06T18:20:23.260Z,34.40
2017-11-06T18:22:50.805Z,42.07
2017-11-06T18:25:17.467Z,45.17
2017-11-06T18:27:44.108Z,49.90
2017-11-06T18:30:10.737Z,33.23
2017-11-06T18:32:37.360Z,30.60
2017-11-06T18:35:03.987Z,25.27
2017-11-06T18:37:30.627Z,33.93
2017-11-06T18:39:57.252Z,41.30
2017-11-06T18:42:23.934Z,38.37
2017-11-06T18:44:50.572Z,31.43
2017-11-06T18:47:17.209Z,33.77
2017-11-06T18:49:43.842Z,41.40
2017-11-06T18:52:10.458Z,37.67
2017-11-06T18:54:37.080Z,45.37
2017-11-06T18:57:03.706Z,53.43
2017-11-06T18:59:30.325Z,55.33
2017-11-06T19:01:56.932Z,36.03
2017-11-06T19:04:24.935Z,37.67
2017-11-06T19:06:51.594Z,38.57
2017-11-06T19:09:18.225Z,40.03
2017-11-06T19:11:44.864Z,33.37
2017-11-06T19:14:12.066Z,41.30
2017-11-06T19:16:38.722Z,35.07
2017-11-06T19:19:05.343Z,41.23
2017-11-06T19:21:32.020Z,46.03
2017-11-06T19:23:59.225Z,45.60
2017-11-06T19:26:25.856Z,37.03
2017-11-06T19:28:52.489Z,36.63
2017-11-06T19:31:19.220Z,38.50
2017-11-06T19:33:46.296Z,37.73
2017-11-06T19:36:12.946Z,33.37
2017-11-06T19:38:39.577Z,42.93
2017-11-06T19:41:06.258Z,50.13
2017-11-06T19:43:32.945Z,40.30
2017-11-06T19:45:59.621Z,38.47
2017-11-06T19:48:26.229Z,36.40
2017-11-06T19:50:52.864Z,69.10
2017-11-06T19:53:19.564Z,47.33
2017-11-06T19:55:46.195Z,55.00
2017-11-06T19:58:12.812Z,45.33
2017-11-06T20:00:39.518Z,42.37
2017-11-06T20:03:06.144Z,42.10
2017-11-06T20:05:32.829Z,40.17
2017-11-06T20:07:59.512Z,40.70
2017-11-06T20:10:26.125Z,39.63
2017-11-06T20:12:52.744Z,37.63
2017-11-06T20:15:19.375Z,36.40
2017-11-06T20:17:45.972Z,33.10
2017-11-06T20:20:12.592Z,18.60
2017-11-06T20:22:39.350Z,25.83
2017-11-06T20:25:06.008Z,23.83
2017-11-06T20:27:32.624Z,40.93
2017-11-06T20:29:59.291Z,24.30
2017-11-06T20:32:25.940Z,25.03
2017-11-06T20:34:52.593Z,25.47
2017-11-06T20:37:19.272Z,25.93
2017-11-06T20:39:45.907Z,25.67
2017-11-06T20:42:13.428Z,27.90
2017-11-06T20:44:40.089Z,25.27
2017-11-06T20:47:06.959Z,27.63
2017-11-06T20:49:33.597Z,21.17
2017-11-06T20:52:00.202Z,21.03
2017-11-06T20:54:26.831Z,33.03
2017-11-06T20:56:53.735Z,21.50
2017-11-06T20:59:21.441Z,33.40
2017-11-06T21:01:48.137Z,29.40
2017-11-06T21:04:16.356Z,36.30
2017-11-06T21:06:43.836Z,30.63
2017-11-06T21:09:10.481Z,44.97
2017-11-06T21:11:37.230Z,36.50
2017-11-06T21:14:03.898Z,35.77
2017-11-06T21:16:30.565Z,39.80
2017-11-06T21:18:57.207Z,27.10
2017-11-06T21:21:23.846Z,46.77
2017-11-06T21:23:50.476Z,32.07
2017-11-06T21:26:17.106Z,34.53
2017-11-06T21:28:43.721Z,31.63
2017-11-06T21:31:10.323Z,29.63
2017-11-06T21:33:36.926Z,30.07
2017-11-06T21:36:03.558Z,37.10
2017-11-06T21:38:30.176Z,30.23
2017-11-06T21:40:56.918Z,31.07
2017-11-06T21:43:23.541Z,26.83
2017-11-06T21:45:50.166Z,28.77
2017-11-06T21:48:16.771Z,27.80
2017-11-06T21:50:43.384Z,29.23
2017-11-06T21:53:10.037Z,26.83
2017-11-06T21:55:36.648Z,33.60
2017-11-06T21:58:03.251Z,24.73
2017-11-06T22:00:29.876Z,38.27
2017-11-06T22:02:56.492Z,50.17
2017-11-06T22:05:23.117Z,162.83
2017-11-06T22:07:49.757Z,106.83
2017-11-06T22:10:16.385Z,68.17
2017-11-06T22:12:43.040Z,60.40
2017-11-06T22:15:12.753Z,60.47
2017-11-06T22:17:39.355Z,44.47
2017-11-06T22:20:05.976Z,26.97
2017-11-06T22:22:32.577Z,27.33
2017-11-06T22:24:59.212Z,67.60
2017-11-06T22:27:25.824Z,36.00
2017-11-06T22:29:52.503Z,28.83
2017-11-06T22:32:19.110Z,43.03
2017-11-06T22:34:45.737Z,42.00
2017-11-06T22:37:12.434Z,49.37
2017-11-06T22:39:39.944Z,24.73
2017-11-06T22:42:06.583Z,22.00
2017-11-06T22:44:33.183Z,26.13
2017-11-06T22:46:59.792Z,21.57
2017-11-06T22:49:26.416Z,28.30
2017-11-06T22:51:53.013Z,23.30
2017-11-06T22:54:19.653Z,35.50
2017-11-06T22:56:46.254Z,26.97
2017-11-06T22:59:12.862Z,20.17
2017-11-06T23:01:39.473Z,25.57
2017-11-06T23:04:06.101Z,38.90
2017-11-06T23:06:32.712Z,17.50
2017-11-06T23:08:59.320Z,28.27
2017-11-06T23:11:25.933Z,27.90
2017-11-06T23:13:52.552Z,21.40
2017-11-06T23:16:19.160Z,27.53
2017-11-06T23:18:45.770Z,28.43
2017-11-06T23:21:12.390Z,16.80
2017-11-06T23:23:39.010Z,23.93
2017-11-06T23:26:05.604Z,27.20
2017-11-06T23:28:32.228Z,35.23
2017-11-06T23:30:58.824Z,27.77
2017-11-06T23:33:25.473Z,34.53
2017-11-06T23:35:52.098Z,103.67
2017-11-06T23:38:18.734Z,100.30
2017-11-06T23:40:45.367Z,51.13
2017-11-06T23:43:11.968Z,45.50
2017-11-06T23:45:38.585Z,26.57
2017-11-06T23:48:05.206Z,26.90
2017-11-06T23:50:31.831Z,31.13
2017-11-06T23:52:58.436Z,15.13
2017-11-06T23:55:25.057Z,20.57
2017-11-06T23:57:51.720Z,33.90
